Time;durP1;ratioP1;P1;durP2;ratioP2;P2;SDS_P1;SDS_P2;PMS_P1;PMS_P2;Temp;Humidity;BMP_temperature;BMP_pressure;BME280_temperature;BME280_humidity;BME280_pressure;Samples;Min_cycle;Max_cycle;Signal;HPM_P1;HPM_P2
2022/03/12 00:00:57;;;;;;;2.42;2.33;;;9.10;99.90;;;;;;5050624;28;20690;-63
2022/03/12 00:03:24;;;;;;;2.20;2.10;;;9.10;99.90;;;;;;5045850;28;20667;-62
2022/03/12 00:05:54;;;;;;;2.30;2.20;;;9.20;99.90;;;;;;5049949;28;20281;-61
2022/03/12 00:08:21;;;;;;;2.38;2.28;;;9.40;99.90;;;;;;5044920;28;20200;-62
2022/03/12 00:10:51;;;;;;;2.20;2.10;;;9.50;99.90;;;;;;5051216;28;20208;-63
2022/03/12 00:13:20;;;;;;;2.30;2.20;;;9.50;99.90;;;;;;5055326;28;20207;-63
2022/03/12 00:15:49;;;;;;;2.67;2.47;;;9.60;99.90;;;;;;5051258;28;20212;-63
2022/03/12 00:18:17;;;;;;;2.40;2.30;;;9.60;99.90;;;;;;5038168;28;20304;-61
2022/03/12 00:20:48;;;;;;;2.43;2.33;;;9.60;99.90;;;;;;5034780;28;20201;-61
2022/03/12 00:23:18;;;;;;;2.63;2.53;;;9.60;99.90;;;;;;5032944;28;20678;-62
2022/03/12 00:25:45;;;;;;;2.50;2.40;;;9.50;99.90;;;;;;5031737;28;20212;-62
2022/03/12 00:28:12;;;;;;;2.60;2.40;;;9.40;99.90;;;;;;5031247;28;21379;-62
2022/03/12 00:30:42;;;;;;;2.30;2.20;;;9.30;99.90;;;;;;5034639;28;20251;-62
2022/03/12 00:33:09;;;;;;;2.60;2.50;;;9.30;99.90;;;;;;5041084;28;20212;-63
2022/03/12 00:35:36;;;;;;;2.60;2.50;;;9.20;99.90;;;;;;5035228;28;20208;-63
2022/03/12 00:38:03;;;;;;;2.40;2.30;;;9.10;99.90;;;;;;5034867;28;20253;-63
2022/03/12 00:40:32;;;;;;;2.40;2.30;;;9.00;99.90;;;;;;5035220;28;20295;-62
2022/03/12 00:42:58;;;;;;;2.63;2.42;;;8.90;99.90;;;;;;5031145;28;20964;-62
2022/03/12 00:45:29;;;;;;;2.60;2.50;;;8.60;99.90;;;;;;5037732;28;20664;-62
2022/03/12 00:47:56;;;;;;;2.47;2.33;;;8.50;99.90;;;;;;5034575;28;20204;-62
2022/03/12 00:50:23;;;;;;;2.47;2.37;;;8.40;99.90;;;;;;5043580;28;20236;-61
2022/03/12 00:52:50;;;;;;;2.50;2.40;;;8.30;99.90;;;;;;5037516;28;20718;-62
2022/03/12 00:55:17;;;;;;;2.67;2.57;;;8.20;99.90;;;;;;5033621;28;20284;-62
2022/03/12 00:57:46;;;;;;;2.80;2.60;;;8.10;99.90;;;;;;5038088;28;20739;-60
2022/03/12 01:00:16;;;;;;;2.40;2.30;;;8.00;99.90;;;;;;5031503;28;20332;-63
2022/03/12 01:02:43;;;;;;;2.70;2.60;;;8.00;99.90;;;;;;5040785;28;20706;-62
2022/03/12 01:05:10;;;;;;;3.00;2.80;;;7.90;99.90;;;;;;5038345;28;20922;-60
2022/03/12 01:07:38;;;;;;;2.90;2.70;;;7.80;99.90;;;;;;5038281;28;20681;-60
2022/03/12 01:10:05;;;;;;;2.83;2.72;;;7.80;99.90;;;;;;5054326;28;20386;-61
2022/03/12 01:12:32;;;;;;;2.70;2.50;;;7.80;99.90;;;;;;5051501;28;20322;-61
2022/03/12 01:15:00;;;;;;;2.75;2.55;;;7.80;99.90;;;;;;5050963;28;20200;-60
2022/03/12 01:17:27;;;;;;;2.85;2.65;;;7.80;99.90;;;;;;5052693;28;20227;-61
2022/03/12 01:19:54;;;;;;;2.80;2.70;;;7.80;99.90;;;;;;5052697;28;20215;-60
2022/03/12 01:22:21;;;;;;;2.83;2.63;;;7.80;99.90;;;;;;5058059;22;20692;-66
2022/03/12 01:24:48;;;;;;;2.63;2.42;;;7.80;99.90;;;;;;5051200;28;20227;-67
2022/03/12 01:27:15;;;;;;;2.80;2.60;;;7.70;99.90;;;;;;5050830;28;20208;-66
2022/03/12 01:29:43;;;;;;;2.65;2.50;;;7.70;99.90;;;;;;5055121;28;20256;-67
2022/03/12 01:32:12;;;;;;;2.40;2.30;;;7.80;99.90;;;;;;5063797;28;20227;-66
2022/03/12 01:34:39;;;;;;;2.40;2.30;;;7.80;99.90;;;;;;5056632;28;20235;-66
2022/03/12 01:37:06;;;;;;;2.60;2.50;;;7.80;99.90;;;;;;5060659;28;20239;-66
2022/03/12 01:39:33;;;;;;;2.35;2.25;;;7.80;99.90;;;;;;5051163;28;20207;-67
2022/03/12 01:42:00;;;;;;;2.67;2.53;;;7.80;99.90;;;;;;5050870;28;20713;-66
2022/03/12 01:44:27;;;;;;;2.60;2.47;;;7.80;99.90;;;;;;5050706;28;20293;-66
2022/03/12 01:46:54;;;;;;;2.80;2.60;;;7.70;99.90;;;;;;5051198;28;20622;-64
2022/03/12 01:49:24;;;;;;;2.47;2.37;;;7.70;99.90;;;;;;5051060;28;20199;-66
2022/03/12 01:51:54;;;;;;;2.97;2.78;;;7.70;99.90;;;;;;5051080;28;20220;-66
2022/03/12 01:54:24;;;;;;;2.45;2.35;;;7.70;99.90;;;;;;5050737;28;20200;-67
2022/03/12 01:56:53;;;;;;;2.50;2.40;;;7.70;99.90;;;;;;5054121;28;20635;-66
2022/03/12 01:59:21;;;;;;;2.72;2.63;;;7.70;99.90;;;;;;5052589;28;21007;-67
2022/03/12 02:01:52;;;;;;;2.50;2.40;;;7.70;99.90;;;;;;5054128;28;20223;-69
2022/03/12 02:04:20;;;;;;;3.25;2.95;;;7.70;99.90;;;;;;5054910;28;20223;-66
2022/03/12 02:06:50;;;;;;;2.10;2.00;;;7.70;99.90;;;;;;5055880;28;20203;-65
2022/03/12 02:09:18;;;;;;;2.50;2.40;;;7.70;99.90;;;;;;5055183;28;20210;-66
2022/03/12 02:11:51;;;;;;;3.60;2.40;;;7.80;99.90;;;;;;5055118;28;20230;-67
2022/03/12 02:14:20;;;;;;;2.40;2.30;;;7.80;99.90;;;;;;5054625;28;20203;-66
2022/03/12 02:16:50;;;;;;;2.70;2.50;;;7.80;99.90;;;;;;5055375;28;20246;-67
2022/03/12 02:19:18;;;;;;;2.72;2.55;;;7.90;99.90;;;;;;5054659;28;20685;-66
2022/03/12 02:21:52;;;;;;;2.55;2.40;;;8.00;99.90;;;;;;5054257;28;20235;-63
2022/03/12 02:24:23;;;;;;;2.43;2.33;;;8.00;99.90;;;;;;5054307;28;20223;-65
2022/03/12 02:26:51;;;;;;;2.50;2.40;;;8.00;99.90;;;;;;5056779;28;20184;-67
2022/03/12 02:29:20;;;;;;;2.63;2.53;;;8.10;99.90;;;;;;5057814;28;20597;-67
2022/03/12 02:31:49;;;;;;;2.67;2.50;;;8.00;99.90;;;;;;5056734;28;20258;-66
2022/03/12 02:34:21;;;;;;;2.37;2.27;;;8.00;99.90;;;;;;5060360;28;20210;-67
2022/03/12 02:36:49;;;;;;;2.47;2.37;;;8.00;99.90;;;;;;5065934;28;20295;-66
2022/03/12 02:39:17;;;;;;;2.63;2.45;;;8.00;99.90;;;;;;5055852;28;20321;-65
2022/03/12 02:41:45;;;;;;;2.60;2.50;;;8.00;99.90;;;;;;5049359;28;20306;-67
2022/03/12 02:44:23;;;;;;;2.43;2.33;;;8.30;99.90;;;;;;5054359;28;20631;-66
2022/03/12 02:47:11;;;;;;;2.50;2.40;;;8.10;99.90;;;;;;5054434;28;20681;-65
2022/03/12 02:49:40;;;;;;;2.73;2.60;;;8.10;99.90;;;;;;5054715;28;20208;-66
2022/03/12 02:52:08;;;;;;;2.70;2.60;;;8.10;99.90;;;;;;5053809;28;20224;-66
2022/03/12 02:54:36;;;;;;;2.65;2.55;;;8.20;99.90;;;;;;5054420;28;20290;-66
2022/03/12 02:57:04;;;;;;;2.50;2.40;;;8.20;99.90;;;;;;5054606;28;20211;-67
2022/03/12 02:59:33;;;;;;;2.50;2.40;;;8.20;99.90;;;;;;5054304;28;20295;-67
2022/03/12 03:02:03;;;;;;;2.30;2.20;;;8.20;99.90;;;;;;5053685;28;20255;-65
2022/03/12 03:04:35;;;;;;;2.47;2.37;;;8.30;99.90;;;;;;5054220;28;20228;-65
2022/03/12 03:07:02;;;;;;;3.10;2.90;;;8.30;99.90;;;;;;5054655;28;20282;-66
2022/03/12 03:09:29;;;;;;;2.43;2.33;;;8.40;99.90;;;;;;5055950;28;20215;-67
2022/03/12 03:11:57;;;;;;;2.45;2.30;;;8.20;99.90;;;;;;5054555;28;20227;-65
2022/03/12 03:14:27;;;;;;;2.40;2.30;;;8.10;99.90;;;;;;5063467;28;20222;-65
2022/03/12 03:16:54;;;;;;;2.60;2.50;;;8.10;99.90;;;;;;5059516;28;20565;-65
2022/03/12 03:19:25;;;;;;;2.80;2.60;;;8.00;99.90;;;;;;5055244;28;20291;-65
2022/03/12 03:21:53;;;;;;;2.60;2.50;;;8.00;99.90;;;;;;5054361;28;20289;-66
2022/03/12 03:24:20;;;;;;;2.60;2.50;;;8.00;99.90;;;;;;5050001;28;20219;-67
2022/03/12 03:26:55;;;;;;;2.50;2.40;;;8.00;99.90;;;;;;5062517;28;20235;-65
2022/03/12 03:29:25;;;;;;;2.40;2.30;;;7.90;99.90;;;;;;5065256;28;20234;-68
2022/03/12 03:31:52;;;;;;;2.53;2.43;;;7.90;99.90;;;;;;5054514;28;20228;-68
2022/03/12 03:34:20;;;;;;;2.50;2.40;;;7.90;99.90;;;;;;5053580;28;20303;-67
2022/03/12 03:36:48;;;;;;;2.70;2.50;;;8.00;99.90;;;;;;5054546;28;20298;-65
2022/03/12 03:39:15;;;;;;;2.47;2.38;;;8.00;99.90;;;;;;5054991;28;20239;-66
2022/03/12 03:41:43;;;;;;;2.80;2.70;;;8.00;99.90;;;;;;5053644;28;20370;-66
2022/03/12 03:44:11;;;;;;;2.70;2.50;;;8.00;99.90;;;;;;5053081;28;20531;-65
2022/03/12 03:46:39;;;;;;;2.40;2.30;;;8.00;99.90;;;;;;5053410;28;20206;-67
2022/03/12 03:49:07;;;;;;;2.70;2.50;;;8.00;99.90;;;;;;5053395;28;20318;-66
2022/03/12 03:51:41;;;;;;;2.53;2.40;;;8.00;99.90;;;;;;5053131;28;20220;-65
2022/03/12 03:54:09;;;;;;;2.47;2.38;;;8.10;99.90;;;;;;5053369;28;20660;-66
2022/03/12 03:56:37;;;;;;;2.60;2.40;;;8.20;99.90;;;;;;5055686;28;20200;-67
2022/03/12 03:59:04;;;;;;;2.60;2.50;;;8.10;99.90;;;;;;5066699;28;20212;-67
2022/03/12 04:01:31;;;;;;;2.40;2.30;;;8.20;99.90;;;;;;5054174;28;20314;-66
2022/03/12 04:04:00;;;;;;;2.30;2.20;;;8.20;99.90;;;;;;5053119;28;20204;-65
2022/03/12 04:06:27;;;;;;;2.30;2.20;;;8.20;99.90;;;;;;5059774;28;20323;-68
2022/03/12 04:08:55;;;;;;;2.47;2.38;;;8.20;99.90;;;;;;5062160;28;20231;-67
2022/03/12 04:11:24;;;;;;;2.70;2.50;;;8.30;99.90;;;;;;5057088;28;20220;-66
2022/03/12 04:13:54;;;;;;;2.20;2.10;;;8.30;99.90;;;;;;5058167;28;20228;-66
2022/03/12 04:16:22;;;;;;;2.50;2.40;;;8.30;99.90;;;;;;5053192;28;20267;-66
2022/03/12 04:18:50;;;;;;;2.60;2.50;;;8.30;99.90;;;;;;5053537;28;20199;-66
2022/03/12 04:21:21;;;;;;;2.20;2.10;;;8.40;99.90;;;;;;5053686;28;20224;-67
2022/03/12 04:23:49;;;;;;;2.20;2.10;;;8.40;99.90;;;;;;5052059;28;20670;-63
2022/03/12 04:26:17;;;;;;;2.42;2.33;;;8.30;99.90;;;;;;5052144;28;20227;-66
2022/03/12 04:28:44;;;;;;;2.40;2.30;;;8.40;99.90;;;;;;5052533;28;20637;-67
2022/03/12 04:31:13;;;;;;;2.20;2.10;;;8.40;99.90;;;;;;5052631;28;20211;-67
2022/03/12 04:33:40;;;;;;;2.17;2.08;;;8.40;99.90;;;;;;5054032;28;20208;-69
2022/03/12 04:36:08;;;;;;;2.40;2.30;;;8.40;99.90;;;;;;5069123;28;20206;-66
2022/03/12 04:38:37;;;;;;;2.60;2.40;;;8.50;99.90;;;;;;5063886;28;20204;-65
2022/03/12 04:41:04;;;;;;;2.70;2.60;;;8.50;99.90;;;;;;5063076;28;20215;-67
2022/03/12 04:43:31;;;;;;;2.87;2.67;;;8.50;99.90;;;;;;5058329;28;20276;-66
2022/03/12 04:46:00;;;;;;;2.88;2.78;;;8.60;99.90;;;;;;5060282;28;20694;-66
2022/03/12 04:48:28;;;;;;;3.70;3.50;;;8.30;99.90;;;;;;5052914;28;20674;-65
2022/03/12 04:50:56;;;;;;;3.60;3.40;;;8.20;99.90;;;;;;5052737;28;20207;-67
2022/03/12 04:53:23;;;;;;;3.60;3.40;;;8.10;99.90;;;;;;5052126;28;20204;-64
2022/03/12 04:55:52;;;;;;;3.97;3.67;;;8.10;99.90;;;;;;5053557;28;20291;-66
2022/03/12 04:58:20;;;;;;;3.58;3.38;;;8.00;99.90;;;;;;5052456;28;20211;-65
2022/03/12 05:00:47;;;;;;;3.40;3.20;;;8.00;99.90;;;;;;5052899;28;20188;-66
2022/03/12 05:03:15;;;;;;;3.38;3.17;;;8.00;99.90;;;;;;5051184;28;20234;-67
2022/03/12 05:05:44;;;;;;;3.47;3.27;;;8.10;99.90;;;;;;5051742;28;20277;-66
2022/03/12 05:08:13;;;;;;;3.40;3.20;;;8.20;99.90;;;;;;5052207;28;20257;-67
2022/03/12 05:10:41;;;;;;;3.70;3.50;;;8.30;99.90;;;;;;5051481;28;20685;-68
2022/03/12 05:13:10;;;;;;;3.50;3.30;;;8.30;99.90;;;;;;5051111;28;20805;-66
2022/03/12 05:15:38;;;;;;;3.70;3.50;;;8.30;99.90;;;;;;5051491;28;20752;-67
2022/03/12 05:18:07;;;;;;;3.95;3.65;;;8.40;99.90;;;;;;5051493;28;20231;-68
2022/03/12 05:20:37;;;;;;;4.15;3.85;;;8.30;99.90;;;;;;5050509;28;20207;-67
2022/03/12 05:23:05;;;;;;;3.80;3.60;;;8.30;99.90;;;;;;5058970;28;20236;-65
2022/03/12 05:25:32;;;;;;;3.40;3.20;;;8.20;99.90;;;;;;5062827;28;20259;-65
2022/03/12 05:27:59;;;;;;;3.58;3.38;;;8.10;99.90;;;;;;5051719;28;20211;-67
2022/03/12 05:30:29;;;;;;;3.50;3.20;;;8.00;99.90;;;;;;5051263;28;20674;-66
2022/03/12 05:32:56;;;;;;;3.37;3.17;;;7.90;99.90;;;;;;5051168;28;20636;-67
2022/03/12 05:35:23;;;;;;;2.70;2.60;;;7.80;99.90;;;;;;5050754;28;20200;-68
2022/03/12 05:37:51;;;;;;;2.97;2.83;;;7.70;99.90;;;;;;5051115;28;20306;-65
2022/03/12 05:40:23;;;;;;;3.03;2.87;;;7.60;99.90;;;;;;5051890;28;20291;-66
2022/03/12 05:42:51;;;;;;;2.67;2.50;;;7.60;99.90;;;;;;5051253;28;20690;-65
2022/03/12 05:45:18;;;;;;;3.10;2.83;;;7.60;99.90;;;;;;5050910;28;20223;-65
2022/03/12 05:47:49;;;;;;;2.42;2.33;;;7.60;99.90;;;;;;5051694;28;20219;-67
2022/03/12 05:50:16;;;;;;;2.60;2.50;;;7.70;99.90;;;;;;5052195;28;20196;-68
2022/03/12 05:52:49;;;;;;;2.80;2.70;;;7.60;99.90;;;;;;5064506;28;20310;-66
2022/03/12 05:55:17;;;;;;;2.70;2.60;;;7.50;99.90;;;;;;5050744;28;20283;-66
2022/03/12 05:57:45;;;;;;;3.00;2.80;;;7.50;99.90;;;;;;5048486;28;20211;-66
2022/03/12 06:00:15;;;;;;;2.70;2.60;;;7.50;99.90;;;;;;5049169;28;20227;-65
2022/03/12 06:02:48;;;;;;;2.83;2.63;;;7.50;99.90;;;;;;5051096;28;20340;-67
2022/03/12 06:05:17;;;;;;;3.00;2.80;;;7.50;99.90;;;;;;5057075;28;20204;-66
2022/03/12 06:07:45;;;;;;;2.70;2.60;;;7.50;99.90;;;;;;5059334;28;20235;-66
2022/03/12 06:10:14;;;;;;;2.90;2.80;;;7.40;99.90;;;;;;5048970;28;20286;-66
2022/03/12 06:12:43;;;;;;;2.85;2.70;;;7.40;99.90;;;;;;5050480;28;20710;-65
2022/03/12 06:15:12;;;;;;;3.08;2.88;;;7.40;99.90;;;;;;5050625;28;20207;-67
2022/03/12 06:17:39;;;;;;;3.10;2.90;;;7.40;99.90;;;;;;5050847;28;20196;-66
2022/03/12 06:20:10;;;;;;;3.10;2.90;;;7.40;99.90;;;;;;5050278;28;20330;-67
2022/03/12 06:22:39;;;;;;;2.85;2.65;;;7.40;99.90;;;;;;5050410;28;20235;-67
2022/03/12 06:25:07;;;;;;;3.45;3.25;;;7.50;99.90;;;;;;5050257;28;20203;-68
2022/03/12 06:27:34;;;;;;;3.42;3.22;;;7.50;99.90;;;;;;5050426;28;20204;-66
2022/03/12 06:30:02;;;;;;;3.10;2.90;;;7.50;99.90;;;;;;5050417;28;20233;-66
2022/03/12 06:32:30;;;;;;;2.97;2.78;;;7.60;99.90;;;;;;5044949;28;20220;-68
2022/03/12 06:34:57;;;;;;;2.92;2.83;;;7.60;99.90;;;;;;5044533;28;20207;-65
2022/03/12 06:37:24;;;;;;;3.22;3.03;;;7.60;99.90;;;;;;5048153;28;20859;-67
2022/03/12 06:39:55;;;;;;;2.88;2.78;;;7.70;99.90;;;;;;5046045;28;20391;-65
2022/03/12 06:42:22;;;;;;;2.90;2.70;;;7.80;99.90;;;;;;5054147;28;20220;-65
2022/03/12 06:44:54;;;;;;;2.77;2.67;;;7.80;99.90;;;;;;5049270;28;20693;-66
2022/03/12 06:47:22;;;;;;;2.80;2.70;;;7.80;99.90;;;;;;5048571;28;20278;-67
2022/03/12 06:49:49;;;;;;;3.40;3.20;;;7.80;99.90;;;;;;5054889;28;20231;-66
2022/03/12 06:52:16;;;;;;;2.67;2.58;;;7.80;99.90;;;;;;5052210;28;20231;-67
2022/03/12 06:54:43;;;;;;;2.80;2.60;;;7.90;99.90;;;;;;5053264;28;20200;-68
2022/03/12 06:57:12;;;;;;;3.03;2.83;;;7.90;99.90;;;;;;5054720;28;20204;-64
2022/03/12 06:59:39;;;;;;;3.03;2.92;;;8.00;99.90;;;;;;5054314;28;20204;-67
2022/03/12 07:02:06;;;;;;;3.10;2.90;;;8.00;99.90;;;;;;5054046;28;20224;-67
2022/03/12 07:04:33;;;;;;;2.80;2.60;;;8.00;99.90;;;;;;5053815;28;20296;-66
2022/03/12 07:07:01;;;;;;;2.70;2.50;;;8.00;99.90;;;;;;5053489;28;20255;-65
2022/03/12 07:09:28;;;;;;;2.73;2.60;;;8.10;99.90;;;;;;5049835;28;20607;-67
2022/03/12 07:11:58;;;;;;;2.63;2.53;;;8.20;99.90;;;;;;5053456;28;20243;-65
2022/03/12 07:14:27;;;;;;;2.77;2.60;;;8.20;99.90;;;;;;5048966;28;20232;-66
2022/03/12 07:16:54;;;;;;;3.10;2.90;;;8.20;99.90;;;;;;5052560;28;20275;-66
2022/03/12 07:19:21;;;;;;;3.20;3.00;;;8.30;99.90;;;;;;5061198;28;20206;-67
2022/03/12 07:21:49;;;;;;;3.05;2.90;;;8.30;99.90;;;;;;5072000;28;20252;-67
2022/03/12 07:24:16;;;;;;;3.30;3.10;;;8.30;99.90;;;;;;5054186;28;20236;-67
2022/03/12 07:26:44;;;;;;;3.13;2.92;;;8.40;99.90;;;;;;5054888;28;20220;-66
2022/03/12 07:29:11;;;;;;;2.90;2.80;;;8.40;99.90;;;;;;5053787;28;20993;-67
2022/03/12 07:31:40;;;;;;;3.13;3.00;;;8.50;99.90;;;;;;5053407;28;20255;-67
2022/03/12 07:34:07;;;;;;;3.38;3.17;;;8.60;99.90;;;;;;5053778;28;20212;-66
2022/03/12 07:36:35;;;;;;;3.17;2.97;;;8.70;99.90;;;;;;5053875;28;20204;-67
2022/03/12 07:39:02;;;;;;;2.90;2.80;;;8.80;99.90;;;;;;5053899;28;20215;-66
2022/03/12 07:41:30;;;;;;;2.85;2.70;;;9.00;99.90;;;;;;5053891;28;20224;-68
2022/03/12 07:43:56;;;;;;;3.00;2.90;;;9.10;99.90;;;;;;5054239;28;20347;-66
2022/03/12 07:46:23;;;;;;;2.78;2.63;;;9.30;99.90;;;;;;5053491;28;20340;-66
2022/03/12 07:48:52;;;;;;;2.65;2.55;;;9.40;99.90;;;;;;5056245;28;20206;-66
2022/03/12 07:51:18;;;;;;;2.40;2.30;;;9.50;99.90;;;;;;5060132;28;20228;-67
2022/03/12 07:53:45;;;;;;;2.55;2.45;;;9.70;99.90;;;;;;5057368;28;20310;-67
2022/03/12 07:56:12;;;;;;;2.75;2.63;;;9.90;99.90;;;;;;5043374;28;20219;-66
2022/03/12 07:58:39;;;;;;;2.60;2.50;;;10.00;99.90;;;;;;5051222;28;20286;-65
2022/03/12 08:01:08;;;;;;;2.87;2.70;;;10.10;99.90;;;;;;5056283;28;20266;-68
2022/03/12 08:03:36;;;;;;;2.53;2.42;;;10.10;99.90;;;;;;5056338;28;20260;-67
2022/03/12 08:06:04;;;;;;;2.92;2.60;;;10.20;99.90;;;;;;5052725;28;20235;-67
2022/03/12 08:08:31;;;;;;;2.78;2.63;;;10.30;99.90;;;;;;5053250;28;20215;-67
2022/03/12 08:13:44;;;;;;;3.15;2.95;;;10.60;99.90;;;;;;5057384;28;20576;-67
2022/03/12 08:16:13;;;;;;;2.83;2.63;;;10.60;99.90;;;;;;5050259;28;20200;-65
2022/03/12 08:18:40;;;;;;;2.80;2.70;;;10.80;99.90;;;;;;5039252;28;20201;-68
2022/03/12 08:21:08;;;;;;;2.63;2.53;;;10.90;99.90;;;;;;5051163;28;20201;-67
2022/03/12 08:23:35;;;;;;;2.58;2.47;;;11.10;99.90;;;;;;5056007;28;20255;-67
2022/03/12 08:26:02;;;;;;;3.27;3.07;;;11.20;99.90;;;;;;5058936;28;20793;-67
2022/03/12 08:28:32;;;;;;;2.90;2.70;;;11.40;99.90;;;;;;5048246;28;20264;-64
2022/03/12 08:30:59;;;;;;;3.13;2.93;;;11.50;99.90;;;;;;5040120;28;20564;-65
2022/03/12 08:33:26;;;;;;;2.90;2.70;;;11.70;99.90;;;;;;5048479;28;20214;-67
2022/03/12 08:35:56;;;;;;;3.55;3.25;;;11.80;99.90;;;;;;5052413;28;20235;-66
2022/03/12 08:38:24;;;;;;;3.65;3.45;;;12.00;99.90;;;;;;5052097;28;20200;-67
2022/03/12 08:40:52;;;;;;;3.50;3.30;;;12.00;99.90;;;;;;5052091;28;20212;-67
2022/03/12 08:43:19;;;;;;;4.30;4.10;;;12.00;99.90;;;;;;5052317;28;20235;-68
2022/03/12 08:45:45;;;;;;;3.88;3.67;;;12.00;99.90;;;;;;5052249;28;20200;-67
2022/03/12 08:48:13;;;;;;;3.80;3.60;;;11.80;99.90;;;;;;5051593;28;20204;-66
2022/03/12 08:50:40;;;;;;;4.27;4.07;;;11.80;99.90;;;;;;5052360;28;20203;-67
2022/03/12 08:53:07;;;;;;;3.92;3.72;;;11.40;99.90;;;;;;5052361;28;20650;-66
2022/03/12 08:55:35;;;;;;;3.92;3.72;;;11.40;99.90;;;;;;5052770;28;20212;-70
2022/03/12 08:58:02;;;;;;;4.30;4.03;;;11.60;99.90;;;;;;5052768;28;20670;-66
2022/03/12 09:00:29;;;;;;;4.18;3.97;;;11.60;99.90;;;;;;5049242;28;20706;-67
2022/03/12 09:02:56;;;;;;;4.03;3.83;;;11.70;99.90;;;;;;5053813;28;20226;-66
2022/03/12 09:05:23;;;;;;;4.40;4.20;;;11.80;99.90;;;;;;5053056;28;20266;-67
2022/03/12 09:07:52;;;;;;;4.38;4.07;;;11.90;99.90;;;;;;5051892;28;20259;-66
2022/03/12 09:10:21;;;;;;;4.40;4.10;;;12.00;99.90;;;;;;5053343;28;20294;-67
2022/03/12 09:12:49;;;;;;;4.33;4.03;;;12.10;99.90;;;;;;5052849;28;20235;-65
2022/03/12 09:15:20;;;;;;;4.82;4.53;;;12.20;99.90;;;;;;5059674;28;20208;-65
2022/03/12 09:17:47;;;;;;;4.30;4.00;;;12.30;99.90;;;;;;5058658;28;20188;-67
2022/03/12 09:20:14;;;;;;;4.60;4.30;;;12.30;99.90;;;;;;5051887;28;20246;-66
2022/03/12 09:22:41;;;;;;;4.70;4.40;;;12.30;99.90;;;;;;5051881;28;20706;-67
2022/03/12 09:25:11;;;;;;;4.50;4.20;;;12.40;99.90;;;;;;5051713;28;20666;-67
2022/03/12 09:27:38;;;;;;;4.18;3.95;;;12.50;99.90;;;;;;5051773;28;20800;-66
2022/03/12 09:30:09;;;;;;;4.65;4.35;;;12.50;99.90;;;;;;5051649;28;20298;-65
2022/03/12 09:32:36;;;;;;;4.80;4.50;;;12.50;99.90;;;;;;5051686;28;20224;-66
2022/03/12 09:35:03;;;;;;;4.43;4.22;;;12.60;99.90;;;;;;5051690;28;20311;-66
2022/03/12 09:37:30;;;;;;;4.00;3.80;;;12.60;99.90;;;;;;5046280;28;20295;-65
2022/03/12 09:39:57;;;;;;;4.38;4.10;;;12.60;99.90;;;;;;5051312;28;20696;-64
2022/03/12 09:42:26;;;;;;;4.22;4.00;;;12.70;99.90;;;;;;5052186;28;20224;-67
2022/03/12 09:44:53;;;;;;;4.60;4.40;;;12.90;99.90;;;;;;5051690;28;20269;-68
2022/03/12 09:47:21;;;;;;;4.72;4.38;;;13.10;99.90;;;;;;5051542;28;20693;-66
2022/03/12 09:49:48;;;;;;;4.83;4.53;;;13.20;99.90;;;;;;5051514;28;20200;-65
2022/03/12 09:52:15;;;;;;;5.20;4.80;;;13.20;99.90;;;;;;5051891;28;20672;-67
2022/03/12 09:54:42;;;;;;;4.53;4.22;;;13.20;99.90;;;;;;5051773;28;20204;-65
2022/03/12 09:57:09;;;;;;;4.93;4.63;;;13.10;99.90;;;;;;5051385;28;20212;-65
2022/03/12 09:59:36;;;;;;;5.03;4.70;;;13.20;99.90;;;;;;5051001;28;20206;-65
2022/03/12 10:02:03;;;;;;;5.32;5.00;;;13.20;99.90;;;;;;5051437;28;20322;-66
2022/03/12 10:04:31;;;;;;;5.18;4.78;;;13.20;99.90;;;;;;5051542;28;20294;-68
2022/03/12 10:06:58;;;;;;;6.00;5.63;;;13.20;99.90;;;;;;5051063;28;20230;-65
2022/03/12 10:09:25;;;;;;;7.15;6.47;;;13.20;99.90;;;;;;5051215;28;20403;-67
2022/03/12 10:11:53;;;;;;;7.22;6.72;;;13.20;99.90;;;;;;5051267;28;20274;-69
2022/03/12 10:14:22;;;;;;;7.03;6.55;;;13.40;99.90;;;;;;5056193;28;20208;-66
2022/03/12 10:16:49;;;;;;;6.78;6.38;;;13.50;99.90;;;;;;5052711;28;20204;-66
2022/03/12 10:19:19;;;;;;;6.75;6.35;;;13.60;99.90;;;;;;5050488;28;20743;-66
2022/03/12 10:21:47;;;;;;;6.55;6.15;;;13.40;99.90;;;;;;5035998;28;20236;-66
2022/03/12 10:24:15;;;;;;;5.63;5.28;;;13.50;99.90;;;;;;5041225;28;20307;-65
2022/03/12 10:26:42;;;;;;;4.80;4.50;;;13.40;99.90;;;;;;5035563;28;20220;-68
2022/03/12 10:29:09;;;;;;;4.90;4.50;;;13.30;99.90;;;;;;5034626;28;20204;-65
2022/03/12 10:31:38;;;;;;;4.78;4.57;;;13.10;99.90;;;;;;5040972;28;20310;-64
2022/03/12 10:34:24;;;;;;;4.90;4.60;;;13.10;99.90;;;;;;5049445;28;20227;-66
2022/03/12 10:36:54;;;;;;;4.97;4.68;;;13.00;99.90;;;;;;5040489;28;20197;-65
2022/03/12 10:39:33;;;;;;;4.70;4.40;;;13.00;99.90;;;;;;5041425;28;20213;-65
2022/03/12 10:42:05;;;;;;;4.65;4.35;;;13.10;99.90;;;;;;5038854;28;20741;-63
2022/03/12 10:44:35;;;;;;;5.00;4.60;;;13.00;99.90;;;;;;5050790;28;20210;-68
2022/03/12 10:47:03;;;;;;;4.20;4.00;;;13.00;99.90;;;;;;5035035;28;20286;-66
2022/03/12 10:49:30;;;;;;;4.50;4.20;;;13.00;99.90;;;;;;5035646;28;20600;-66
2022/03/12 10:51:59;;;;;;;4.28;4.07;;;13.00;99.90;;;;;;5033427;28;20220;-65
2022/03/12 10:54:26;;;;;;;4.00;3.80;;;13.10;99.90;;;;;;5038868;28;20299;-67
2022/03/12 10:56:54;;;;;;;4.05;3.85;;;13.20;99.90;;;;;;5037651;28;20727;-64
2022/03/12 10:59:24;;;;;;;4.10;3.80;;;13.30;99.90;;;;;;5038372;28;20232;-67
2022/03/12 11:01:53;;;;;;;4.18;3.95;;;13.40;99.90;;;;;;5041166;28;20245;-65
2022/03/12 11:04:23;;;;;;;4.43;4.18;;;13.50;99.90;;;;;;5039939;28;20211;-67
2022/03/12 11:06:51;;;;;;;4.10;3.90;;;13.60;99.90;;;;;;5045484;28;20247;-64
2022/03/12 11:09:33;;;;;;;4.27;4.00;;;13.70;99.90;;;;;;5049273;28;20201;-65
2022/03/12 11:12:00;;;;;;;3.97;3.78;;;13.70;99.90;;;;;;5047728;28;20229;-65
2022/03/12 11:14:30;;;;;;;4.30;4.03;;;13.70;99.90;;;;;;5046204;28;20205;-65
2022/03/12 11:16:57;;;;;;;4.07;3.88;;;13.60;99.90;;;;;;5040372;28;20653;-65
2022/03/12 11:19:38;;;;;;;3.88;3.67;;;13.80;99.90;;;;;;5033883;28;20228;-66
2022/03/12 11:22:11;;;;;;;4.32;4.03;;;13.80;99.90;;;;;;5053968;28;20238;-65
2022/03/12 11:24:49;;;;;;;3.80;3.50;;;13.90;99.90;;;;;;5053908;28;20207;-65
2022/03/12 11:27:28;;;;;;;4.13;3.83;;;14.00;99.90;;;;;;5054807;28;20222;-65
2022/03/12 11:30:01;;;;;;;4.40;4.10;;;13.90;99.90;;;;;;5039754;28;20235;-65
2022/03/12 11:32:30;;;;;;;3.90;3.63;;;13.90;99.90;;;;;;5036042;28;20306;-66
2022/03/12 11:35:06;;;;;;;4.07;3.88;;;13.90;99.90;;;;;;5034142;28;20239;-65
2022/03/12 11:37:36;;;;;;;3.83;3.63;;;14.00;99.90;;;;;;5038553;28;20200;-64
2022/03/12 11:40:10;;;;;;;4.32;3.78;;;13.90;99.90;;;;;;5037185;28;20204;-64
2022/03/12 11:42:38;;;;;;;3.80;3.60;;;14.00;99.90;;;;;;5037216;28;20216;-64
2022/03/12 11:45:09;;;;;;;3.90;3.50;;;14.00;99.90;;;;;;5040058;28;20200;-65
2022/03/12 11:47:38;;;;;;;3.60;3.40;;;14.10;99.90;;;;;;5053232;28;20220;-64
2022/03/12 11:50:09;;;;;;;3.38;3.17;;;14.20;99.90;;;;;;5045428;28;20214;-65
2022/03/12 11:52:37;;;;;;;3.50;3.30;;;14.10;99.90;;;;;;5042307;28;20699;-64
2022/03/12 11:55:15;;;;;;;3.50;3.30;;;14.20;99.90;;;;;;5036775;28;20196;-65
2022/03/12 11:57:42;;;;;;;3.45;3.25;;;14.20;99.90;;;;;;5037599;28;20200;-65
2022/03/12 12:00:18;;;;;;;3.58;3.38;;;14.40;99.90;;;;;;5032753;28;20200;-65
2022/03/12 12:02:45;;;;;;;3.90;3.60;;;14.50;99.90;;;;;;5035442;28;20234;-64
2022/03/12 12:05:13;;;;;;;3.63;3.33;;;14.60;99.90;;;;;;5032152;28;20205;-64
2022/03/12 12:07:41;;;;;;;3.95;3.75;;;14.60;99.90;;;;;;5032649;28;20594;-65
2022/03/12 12:10:11;;;;;;;3.90;3.70;;;14.60;99.90;;;;;;5031880;28;20287;-64
2022/03/12 12:12:40;;;;;;;3.50;3.30;;;14.60;99.90;;;;;;5032860;28;20307;-64
2022/03/12 12:15:14;;;;;;;3.97;3.78;;;14.50;99.90;;;;;;5036411;28;20301;-65
2022/03/12 12:17:43;;;;;;;3.87;3.67;;;14.70;99.90;;;;;;5033981;28;20204;-65
2022/03/12 12:20:11;;;;;;;3.97;3.75;;;14.70;99.90;;;;;;5053002;28;20211;-64
2022/03/12 12:22:39;;;;;;;3.60;3.40;;;14.80;99.90;;;;;;5052783;28;20626;-64
2022/03/12 12:25:08;;;;;;;3.00;2.90;;;14.90;99.90;;;;;;5052804;28;20267;-64
2022/03/12 12:27:44;;;;;;;3.53;3.25;;;14.80;99.90;;;;;;5052190;28;20216;-64
2022/03/12 12:30:16;;;;;;;3.50;3.30;;;14.80;99.90;;;;;;5053280;28;20330;-65
2022/03/12 12:32:47;;;;;;;3.60;3.40;;;14.90;99.90;;;;;;5053032;28;20227;-65
2022/03/12 12:35:16;;;;;;;3.42;3.22;;;14.80;99.90;;;;;;5052838;28;20203;-65
2022/03/12 12:37:52;;;;;;;3.30;3.10;;;14.90;99.90;;;;;;5046501;28;20502;-64
2022/03/12 12:40:29;;;;;;;3.10;3.00;;;15.00;99.90;;;;;;5053521;28;20286;-64
2022/03/12 12:43:01;;;;;;;3.45;3.25;;;15.20;99.90;;;;;;5049650;28;20220;-66
2022/03/12 12:45:30;;;;;;;2.70;2.60;;;15.40;99.90;;;;;;5042265;28;20265;-65
2022/03/12 12:48:14;;;;;;;3.17;2.97;;;15.40;99.90;;;;;;5053344;28;20228;-64
2022/03/12 12:50:42;;;;;;;3.20;3.00;;;15.40;99.90;;;;;;5053121;28;20208;-67
2022/03/12 12:53:12;;;;;;;3.53;3.33;;;15.50;99.90;;;;;;5048574;28;20227;-66
2022/03/12 12:55:39;;;;;;;2.95;2.85;;;15.40;99.90;;;;;;5045922;28;20204;-65
2022/03/12 12:58:08;;;;;;;3.70;3.50;;;15.40;99.90;;;;;;5052544;28;20192;-65
2022/03/12 13:00:38;;;;;;;3.10;3.00;;;15.40;99.90;;;;;;5052763;28;20246;-63
2022/03/12 13:03:22;;;;;;;2.97;2.83;;;15.50;99.90;;;;;;5058494;28;20230;-67